Latest Weather Observations for Oakey

IDQ60801

Issued at 8:02 am EST Thursday 29 January 2015 (issued every 30 minutes, with the page automatically refreshed every 10 minutes)

About weather observations | Map of weather stations | Latest weather observations for QLD | Other Formats
Station Details ID: 041359 Name: OAKEY AERO Lat: -27.40 Lon: 151.74 Height: 405.69 m
Data from the previous 72 hours. | See also: Recent months at Oakey
Date/Time
EST
Temp
°C
App
Temp
°C
Dew
Point
Rel
Hum
%
Delta-T
°C
Wind Press
QNH
hPa
Press
MSL
hPa
Rain
since 9 am
mm
Dir
 
Spd
km/h
Gust
km/h
Spd
kts
Gust
kts
29/07:30am 19.8 19.9 14.0 69 3.4 ESE 6 13 3 7 1010.5 - 3.0
29/06:00am 15.2 14.5 14.2 94 0.6 SSW 11 13 6 7 1009.9 1007.6 3.0
29/05:30am 15.0 14.5 13.9 93 0.6 S 9 13 5 7 1009.6 - 3.0
29/05:00am 15.2 14.8 14.2 94 0.6 S 9 11 5 6 1009.2 - 3.0
29/04:30am 15.1 14.8 14.3 95 0.5 SSE 9 13 5 7 1008.8 - 3.0
29/03:30am 16.0 16.3 15.0 94 0.6 ENE 7 9 4 5 1008.4 - 3.0
29/03:00am 16.3 16.8 15.0 92 0.8 SSE 6 6 3 3 1008.7 1006.4 3.0
29/02:34am 16.6 17.0 15.3 92 0.8 S 7 9 4 5 1008.8 - 2.8
29/02:30am 16.6 17.2 15.3 92 0.8 S 6 7 3 4 1008.8 - 2.8
29/02:15am 16.8 17.5 15.5 92 0.8 SSW 6 7 3 4 1008.9 - 2.8
29/02:00am 16.8 17.5 15.5 92 0.8 SSW 6 6 3 3 1009.1 - 2.8
29/01:30am 16.7 17.0 14.9 89 1.1 SSE 7 9 4 5 1009.0 - 2.8
29/01:00am 17.2 17.3 15.4 89 1.1 SSE 9 11 5 6 1009.3 - 2.8
29/12:30am 17.2 17.0 15.7 91 0.9 S 11 15 6 8 1009.4 - 2.8
 
Date/Time
EST
Temp
°C
App
Temp
°C
Dew
Point
Rel
Hum
%
Delta-T
°C
Wind Press
QNH
hPa
Press
MSL
hPa
Rain
since 9 am
mm
Dir
 
Spd
km/h
Gust
km/h
Spd
kts
Gust
kts
28/11:30pm 17.5 17.5 15.3 87 1.3 E 9 11 5 6 1009.9 - 2.8
28/11:00pm 17.9 17.2 15.5 86 1.4 E 13 17 7 9 1009.9 - 2.8
28/10:30pm 18.1 16.8 15.7 86 1.4 E 17 20 9 11 1010.0 - 2.8
28/10:00pm 18.1 16.8 15.7 86 1.4 E 17 24 9 13 1009.8 - 2.8
28/09:30pm 18.5 16.9 16.1 86 1.5 E 19 24 10 13 1009.8 - 2.8
28/09:00pm 18.6 17.7 16.9 90 1.0 E 17 22 9 12 1009.8 1007.5 2.8
28/08:30pm 18.4 18.0 17.1 92 0.8 E 15 19 8 10 1009.5 - 2.8
28/08:14pm 18.3 17.9 17.1 93 0.7 E 15 19 8 10 1009.4 - 2.8
28/08:00pm 18.3 17.5 17.0 92 0.8 ENE 17 20 9 11 1009.6 - 2.8
28/07:30pm 18.4 18.3 16.9 91 0.9 E 13 19 7 10 1009.4 - 2.4
28/07:00pm 18.6 19.0 17.3 92 0.8 E 11 15 6 8 1009.2 - 2.2
28/06:00pm 19.3 19.8 17.4 89 1.2 E 11 11 6 6 1008.6 1006.2 1.2
28/05:30pm 19.4 18.9 17.7 90 1.1 SE 17 20 9 11 1008.3 - 1.2
28/05:00pm 19.4 19.7 17.9 91 0.9 SE 13 17 7 9 1008.0 - 1.0
28/04:47pm 19.4 19.2 17.5 89 1.2 SE 15 19 8 10 1007.9 - 0.8
28/04:30pm 19.7 20.0 17.8 89 1.2 SE 13 17 7 9 1007.7 - 0.8
28/04:00pm 20.0 20.0 18.0 88 1.3 SE 15 20 8 11 1007.6 - 0.4
28/03:44pm 20.1 20.7 17.7 86 1.5 ESE 11 24 6 13 1007.6 - 0.4
28/03:30pm 20.1 21.5 17.3 84 1.7 ESE 6 7 3 4 1007.5 - 0.2
28/03:17pm 20.3 19.2 17.3 83 1.9 SE 19 22 10 12 1007.5 - 0.0
28/03:00pm 21.7 20.3 16.6 73 3.2 S 19 22 10 12 1007.4 1005.1 0.0
28/02:30pm 22.5 22.1 16.3 68 3.8 ESE 13 17 7 9 1007.4 - 0.0
28/02:00pm 22.6 21.8 16.2 67 3.9 SSE 15 19 8 10 1007.3 - 0.0
28/01:30pm 22.7 22.5 16.7 69 3.7 SSE 13 19 7 10 1007.5 - 0.0
28/01:00pm 22.8 21.5 16.8 69 3.7 SSE 19 22 10 12 1007.6 - 0.0
28/12:30pm 23.3 22.3 16.6 66 4.2 ENE 17 26 9 14 1008.0 - 0.0
28/12:00pm 22.9 21.4 16.4 67 4.0 ENE 19 24 10 13 1008.3 1005.9 0.0
28/11:30am 23.2 21.5 16.3 65 4.3 E 20 26 11 14 1008.4 - 0.0
28/11:00am 23.6 22.2 17.1 67 4.1 E 20 26 11 14 1008.5 - 0.0
28/10:30am 22.5 20.5 16.5 69 3.7 ESE 22 28 12 15 1008.7 - 0.0
28/10:00am 22.3 21.1 17.4 74 3.1 ESE 20 26 11 14 1008.6 - 0.0
28/09:30am 20.5 18.5 16.5 78 2.5 E 22 28 12 15 1008.5 - 0.0
28/09:00am 20.1 18.5 17.5 85 1.6 E 22 32 12 17 1008.3 1005.9 8.6
28/08:30am 18.5 16.9 16.5 88 1.2 ESE 20 30 11 16 1008.0 - 8.6
28/08:00am 18.5 17.7 16.1 86 1.5 SE 15 19 8 10 1008.1 - 8.6
28/07:30am 18.2 17.0 16.0 87 1.3 E 17 22 9 12 1007.1 - 8.4
28/07:00am 17.8 15.9 15.2 85 1.5 ENE 19 24 10 13 1007.0 - 8.4
28/06:30am 17.5 16.0 15.3 87 1.3 ENE 17 24 9 13 1006.7 - 8.4
28/06:00am 17.4 15.4 15.0 86 1.4 ENE 19 24 10 13 1006.4 1004.0 8.4
28/05:30am 17.5 15.4 15.1 86 1.4 E 20 24 11 13 1006.6 - 8.2
28/05:00am 17.5 16.8 15.5 88 1.2 E 13 19 7 10 1006.6 - 8.0
28/04:30am 17.5 16.5 15.7 89 1.1 E 15 20 8 11 1006.6 - 7.6
28/04:00am 17.4 15.4 15.6 89 1.1 ESE 20 26 11 14 1006.8 - 7.6
28/03:30am 17.4 15.5 15.7 90 1.0 E 20 26 11 14 1006.9 - 7.6
28/03:20am 17.3 15.3 15.6 90 1.0 E 20 26 11 14 1006.9 - 7.6
28/03:03am 17.3 15.5 15.6 90 1.0 ESE 19 24 10 13 1007.0 - 7.6
28/03:00am 17.3 15.5 15.5 89 1.1 ESE 19 24 10 13 1007.0 1004.7 7.6
28/02:42am 17.5 14.8 15.5 88 1.2 E 24 33 13 18 1006.9 - 7.4
28/02:30am 17.7 14.1 15.3 86 1.4 E 28 35 15 19 1006.9 - 7.4
28/02:00am 18.1 14.3 15.7 86 1.4 ESE 30 39 16 21 1007.0 - 7.4
28/01:30am 18.3 14.3 16.3 88 1.2 E 32 41 17 22 1007.1 - 7.4
28/01:20am 18.5 14.0 16.3 87 1.3 E 35 48 19 26 1007.2 - 7.4
28/01:00am 19.6 16.3 17.0 85 1.6 ENE 30 41 16 22 1007.1 - 7.4
28/12:30am 19.6 18.3 18.1 91 0.9 ENE 22 32 12 17 1007.3 - 7.4
28/12:00am 19.7 18.1 18.4 92 0.8 ENE 24 30 13 16 1007.4 1005.1 7.4
 
Date/Time
EST
Temp
°C
App
Temp
°C
Dew
Point
Rel
Hum
%
Delta-T
°C
Wind Press
QNH
hPa
Press
MSL
hPa
Rain
since 9 am
mm
Dir
 
Spd
km/h
Gust
km/h
Spd
kts
Gust
kts
27/11:30pm 19.8 19.2 18.8 94 0.6 ENE 20 26 11 14 1008.0 - 7.2
27/11:00pm 19.8 18.7 18.6 93 0.8 ENE 22 26 12 14 1008.2 - 5.8
27/10:30pm 19.9 17.9 18.2 90 1.1 ENE 26 32 14 17 1008.0 - 4.2
27/10:00pm 20.4 19.6 18.5 89 1.2 ENE 20 24 11 13 1008.4 - 3.6
27/09:30pm 20.5 19.0 18.6 89 1.2 ENE 24 32 13 17 1008.1 - 3.4
27/09:00pm 20.8 19.7 18.7 88 1.3 E 22 30 12 16 1008.3 1005.9 2.6
27/08:30pm 21.2 20.8 19.3 89 1.2 E 20 28 11 15 1008.1 - 1.6
27/08:00pm 21.8 21.8 20.1 90 1.1 E 20 28 11 15 1007.5 - 1.2
27/07:30pm 22.4 22.4 20.1 87 1.5 ENE 20 30 11 16 1007.0 - 0.8
27/07:00pm 22.8 22.2 19.8 83 2.0 E 22 30 12 16 1006.7 - 0.4
27/06:30pm 23.9 22.8 19.4 76 2.9 ENE 24 33 13 18 1006.4 - 0.0
27/06:00pm 24.6 23.3 19.0 71 3.6 E 24 33 13 18 1005.9 1003.5 0.0
27/05:30pm 26.3 23.1 18.2 61 5.2 ENE 32 39 17 21 1005.3 - 0.0
27/05:00pm 26.9 23.5 17.7 57 5.9 ENE 32 39 17 21 1004.8 - 0.0
27/04:30pm 28.4 26.0 17.3 51 7.1 NE 26 35 14 19 1004.8 - 0.0
27/04:00pm 28.5 25.4 17.4 51 7.1 E 30 35 16 19 1004.6 - 0.0
27/03:30pm 29.8 26.7 15.5 42 8.9 E 26 35 14 19 1004.6 - 0.0
27/03:00pm 31.3 28.5 15.3 38 10.1 ENE 24 35 13 19 1005.0 1002.7 0.0
27/02:30pm 30.4 27.7 15.7 41 9.2 E 24 35 13 19 1005.6 - 0.0
27/02:00pm 30.5 27.9 15.8 41 9.3 ENE 24 39 13 21 1006.1 - 0.0
27/01:30pm 29.8 27.6 15.9 43 8.8 NE 22 35 12 19 1006.9 - 0.0
27/01:00pm 29.1 27.3 16.0 45 8.2 E 20 26 11 14 1007.2 - 0.0
27/12:30pm 29.4 28.1 17.2 47 7.8 NE 20 30 11 16 1007.6 - 0.0
27/12:00pm 29.2 26.6 16.0 44 8.3 NE 24 35 13 19 1008.0 1005.6 0.0
27/11:30am 30.4 28.2 17.8 46 8.2 NE 26 39 14 21 1008.4 - 0.0
27/11:00am 28.6 25.8 17.2 50 7.3 ENE 28 33 15 18 1009.0 - 0.0
27/10:30am 28.9 27.2 18.1 52 7.0 E 24 33 13 18 1009.5 - 0.0
27/10:00am 27.8 24.5 17.0 51 6.9 E 30 43 16 23 1009.6 - 0.0
27/09:30am 26.7 24.6 18.0 59 5.6 E 26 32 14 17 1009.7 - 0.0
27/09:00am 27.1 24.4 18.4 59 5.6 E 30 35 16 19 1009.6 1007.3 2.4
27/08:30am 24.8 22.4 18.3 67 4.2 ENE 28 35 15 19 1009.5 - 2.4
27/08:00am 24.9 22.1 18.3 66 4.2 E 30 41 16 22 1009.1 - 1.6
27/07:30am 24.5 21.2 18.4 69 3.9 E 33 41 18 22 1009.1 - 1.6
27/07:00am 23.7 21.5 18.6 73 3.3 E 28 35 15 19 1009.0 - 1.6
27/06:30am 23.1 21.1 18.4 75 3.0 E 26 35 14 19 1008.6 - 1.6
27/06:00am 22.3 21.7 18.9 81 2.2 E 20 28 11 15 1008.7 1006.4 1.6
27/05:30am 21.6 21.2 18.8 84 1.8 E 19 24 10 13 1008.9 - 1.6
27/05:04am 21.7 21.3 18.9 84 1.8 ESE 19 24 10 13 1008.5 - 1.6
27/05:00am 21.9 21.4 19.1 84 1.8 ESE 20 28 11 15 1008.4 - 1.6
27/04:34am 22.1 22.4 19.5 85 1.7 E 17 22 9 12 1008.0 - 1.6
27/04:30am 21.9 22.2 19.5 86 1.6 E 17 22 9 12 1008.0 - 1.6
27/04:00am 22.1 21.3 19.3 84 1.8 E 22 28 12 15 1007.4 - 1.6
27/03:30am 22.2 21.4 19.2 83 1.9 E 22 30 12 16 1007.4 - 1.6
27/03:00am 22.3 21.9 19.3 83 1.9 E 20 35 11 19 1007.5 1005.2 1.6
27/02:30am 22.4 21.7 19.4 83 1.9 E 22 28 12 15 1007.3 - 1.6
27/02:00am 22.1 21.7 19.3 84 1.8 E 20 30 11 16 1007.2 - 1.6
27/01:30am 22.4 21.9 19.2 82 2.1 E 20 30 11 16 1007.9 - 1.6
27/01:00am 22.5 23.0 19.3 82 2.1 E 15 20 8 11 1008.6 - 1.6
27/12:30am 22.6 21.8 19.2 81 2.2 E 22 28 12 15 1008.6 - 1.6
27/12:00am 22.7 22.4 19.1 80 2.3 ENE 19 26 10 14 1009.1 1006.8 1.6
 
Date/Time
EST
Temp
°C
App
Temp
°C
Dew
Point
Rel
Hum
%
Delta-T
°C
Wind Press
QNH
hPa
Press
MSL
hPa
Rain
since 9 am
mm
Dir
 
Spd
km/h
Gust
km/h
Spd
kts
Gust
kts
26/11:30pm 22.9 21.5 18.9 78 2.6 ENE 24 32 13 17 1009.5 - 1.6
26/11:00pm 22.9 22.0 19.9 83 2.0 E 24 32 13 17 1009.6 - 1.6
26/10:30pm 23.1 20.6 19.7 81 2.2 E 32 41 17 22 1009.7 - 1.6
26/10:00pm 23.1 22.7 20.2 84 1.9 ENE 22 30 12 16 1010.0 - 1.6
26/09:30pm 23.1 22.4 20.2 84 1.9 ENE 24 32 13 17 1010.1 - 1.6
26/09:00pm 22.6 24.1 20.5 88 1.4 SSE 13 17 7 9 1010.3 1008.0 1.6
26/08:30pm 23.4 22.5 20.7 85 1.8 E 26 37 14 20 1009.7 - 1.6
26/08:00pm 23.8 23.6 21.3 86 1.7 E 24 30 13 16 1008.9 - 1.6
26/07:30pm 24.1 22.0 21.6 86 1.7 NE 35 46 19 25 1007.9 - 1.4
26/07:00pm 24.2 23.0 21.5 85 1.8 NE 30 37 16 20 1007.7 - 1.4
26/06:30pm 24.6 24.0 21.3 82 2.2 NE 26 33 14 18 1008.8 - 1.4
26/06:00pm 25.1 27.0 22.0 83 2.1 E 15 17 8 9 1008.6 1006.2 0.8
26/05:30pm 25.9 26.6 21.6 77 2.9 ESE 20 30 11 16 1008.0 - 0.6
26/05:00pm 27.4 26.0 20.5 66 4.6 E 28 33 15 18 1007.0 - 0.4
26/04:30pm 27.7 26.1 20.0 63 5.1 NE 28 39 15 21 1006.2 - 0.4
26/04:00pm 28.8 24.8 19.4 56 6.2 NE 39 52 21 28 1006.0 - 0.4
26/03:30pm 31.1 29.0 21.0 55 6.9 ENE 33 46 18 25 1005.6 - 0.4
26/03:00pm 30.0 27.8 20.3 56 6.5 NE 32 43 17 23 1005.9 1003.5 0.4
26/02:30pm 29.9 28.3 21.8 62 5.5 NE 33 43 18 23 1006.2 - 0.4
26/02:00pm 31.3 32.0 22.3 58 6.2 NE 22 32 12 17 1005.7 - 0.4
26/01:30pm 27.8 29.0 22.5 73 3.6 NE 20 30 11 16 1006.3 - 0.4
26/01:00pm 26.0 24.4 18.4 63 4.9 NNE 24 33 13 18 1006.8 - 0.0
26/12:30pm 28.0 24.2 19.0 58 5.9 NE 37 46 20 25 1006.7 - 0.0
26/12:23pm 28.7 24.7 16.6 48 7.7 NE 33 46 18 25 1006.7 - 0.0
26/12:00pm 34.2 32.7 17.8 37 10.8 E 22 32 12 17 1006.9 1004.6 0.0
26/11:30am 34.4 35.5 18.0 37 10.8 SE 9 17 5 9 1007.2 - 0.0
26/11:00am 34.7 34.0 18.3 38 10.8 E 19 22 10 12 1007.7 - 0.0
26/10:30am 32.6 34.5 19.8 46 8.6 WNW 9 22 5 12 1008.2 - 0.0
26/10:00am 32.0 34.9 20.6 51 7.7 SE 6 9 3 5 1008.3 - 0.0
26/09:30am 31.5 33.7 19.5 49 8.0 NNE 7 15 4 8 1008.6 - 0.0
26/09:00am 31.4 34.9 22.1 57 6.4 NE 7 9 4 5 1008.8 1006.5 0.0
26/08:30am 30.1 33.7 22.3 63 5.4 ENE 7 15 4 8 1008.8 - 0.0

Other Formats:

Comma delimited format used in spreadsheet applications
http://www.bom.gov.au/fwo/IDQ60801/IDQ60801.94552.axf

JavaScript Object Notation format (JSON) in row-major order
http://www.bom.gov.au/fwo/IDQ60801/IDQ60801.94552.json